^^
Saratoga-Weather Station Historical Data
Daily Summary for April 20, 2020 Units:  Both    English   Metric
Daily Weekly Monthly Yearly Custom
  High: Low: Average:
Temperature: 42.3 °F /  5.7 °C 33.1 °F /  0.6 °C 37.6 °F /  3.1 °C
Dew Point: 36 °F /  2.2 °C 29.7 °F /  -1.3 °C 33.3 °F /  0.7 °C
Humidity: 93% 73% 84%
Wind Speed: 14mph /  22.5km/h - 1.2mph /  1.9km/h
Wind Gust: 14mph /  22.5km/h - -
Wind- - East
Pressure: 30.9 in /  1046.4 hPa 30.8 in /  1043.3 hPa -
Precipitation: 0.01 in /  0.2 mm    
Historical Graphs
 
 
Tabular Data for April 20, 2020
Time Temperature Dew Point Pressure Wind Wind Speed Wind Gust Humidity Rainfall Rate (Hourly) solar
00:01 39 °F /  3.9 °C 35.8 °F /  2.1 °C 30.8in /  1044.4hPa Calm   4mph /  6.4km/h 88% 0in /  0.0mm 0 W/m2
00:06 39 °F /  3.9 °C 35.8 °F /  2.1 °C 30.8in /  1044.4hPa Calm     88% 0in /  0.0mm 0 W/m2
00:11 39 °F /  3.9 °C 35.8 °F /  2.1 °C 30.8in /  1044.4hPa Calm     88% 0in /  0.0mm 0 W/m2
00:16 39.2 °F /  4 °C 36 °F /  2.2 °C 30.8in /  1044.4hPa Calm   3mph /  4.8km/h 88% 0in /  0.0mm 0 W/m2
00:21 39.2 °F /  4 °C 36 °F /  2.2 °C 30.8in /  1044.4hPa Calm   4mph /  6.4km/h 88% 0in /  0.0mm 0 W/m2
00:26 39.2 °F /  4 °C 36 °F /  2.2 °C 30.8in /  1044.4hPa Calm     88% 0in /  0.0mm 0 W/m2
00:31 39.2 °F /  4 °C 36 °F /  2.2 °C 30.8in /  1044.4hPa Calm   1mph /  1.6km/h 88% 0in /  0.0mm 0 W/m2
00:36 39.2 °F /  4 °C 36 °F /  2.2 °C 30.8in /  1044.4hPa NNE 2.9mph /  4.7km/h 3mph /  4.8km/h 88% 0in /  0.0mm 0 W/m2
00:41 39 °F /  3.9 °C 35.8 °F /  2.1 °C 30.8in /  1044.4hPa North 6mph /  9.7km/h 10mph /  16.1km/h 88% 0in /  0.0mm 0 W/m2
00:46 39 °F /  3.9 °C 35.8 °F /  2.1 °C 30.8in /  1044.4hPa Calm   3mph /  4.8km/h 88% 0in /  0.0mm 0 W/m2
00:51 39 °F /  3.9 °C 35.4 °F /  1.9 °C 30.8in /  1044.4hPa Calm     87% 0in /  0.0mm 0 W/m2
00:56 39 °F /  3.9 °C 35.8 °F /  2.1 °C 30.8in /  1044.4hPa Calm     88% 0in /  0.0mm 0 W/m2
01:01 38.8 °F /  3.8 °C 35.6 °F /  2 °C 30.8in /  1044.4hPa Calm   3mph /  4.8km/h 88% 0in /  0.0mm 0 W/m2
01:06 38.8 °F /  3.8 °C 35.6 °F /  2 °C 30.8in /  1044.4hPa Calm   4mph /  6.4km/h 88% 0in /  0.0mm 0 W/m2
01:11 38.8 °F /  3.8 °C 35.6 °F /  2 °C 30.8in /  1044.4hPa Calm     88% 0in /  0.0mm 0 W/m2
01:16 38.8 °F /  3.8 °C 35.6 °F /  2 °C 30.8in /  1044.4hPa Calm   4mph /  6.4km/h 88% 0in /  0.0mm 0 W/m2
01:21 38.8 °F /  3.8 °C 35.6 °F /  2 °C 30.8in /  1044.4hPa NNW 5mph /  8km/h 5mph /  8km/h 88% 0in /  0.0mm 0 W/m2
01:26 38.8 °F /  3.8 °C 35.6 °F /  2 °C 30.8in /  1044.4hPa North 0.9mph /  1.4km/h 1mph /  1.6km/h 88% 0in /  0.0mm 0 W/m2
01:31 38.8 °F /  3.8 °C 35.6 °F /  2 °C 30.8in /  1044.4hPa Calm     88% 0in /  0.0mm 0 W/m2
01:36 39 °F /  3.9 °C 35.8 °F /  2.1 °C 30.8in /  1044.4hPa Calm   7mph /  11.3km/h 88% 0in /  0.0mm 0 W/m2
01:41 39 °F /  3.9 °C 35.8 °F /  2.1 °C 30.8in /  1044.4hPa Calm   3mph /  4.8km/h 88% 0in /  0.0mm 0 W/m2
01:46 38.8 °F /  3.8 °C 35.6 °F /  2 °C 30.8in /  1044.4hPa Calm     88% 0in /  0.0mm 0 W/m2
01:51 38.8 °F /  3.8 °C 35.6 °F /  2 °C 30.8in /  1044.4hPa NW 0.9mph /  1.4km/h 8mph /  12.9km/h 88% 0in /  0.0mm 0 W/m2
01:56 38.8 °F /  3.8 °C 35.6 °F /  2 °C 30.8in /  1044.4hPa NW 2.9mph /  4.7km/h 4mph /  6.4km/h 88% 0in /  0.0mm 0 W/m2
02:01 38.7 °F /  3.7 °C 35.4 °F /  1.9 °C 30.8in /  1044.4hPa NE 2.9mph /  4.7km/h 3mph /  4.8km/h 88% 0in /  0.0mm 0 W/m2
02:06 38.7 °F /  3.7 °C 35.4 °F /  1.9 °C 30.8in /  1044.4hPa Calm   2mph /  3.2km/h 88% 0in /  0.0mm 0 W/m2
02:11 38.7 °F /  3.7 °C 35.4 °F /  1.9 °C 30.8in /  1044.4hPa Calm   1mph /  1.6km/h 88% 0in /  0.0mm 0 W/m2
02:16 38.5 °F /  3.6 °C 35.2 °F /  1.8 °C 30.8in /  1044.4hPa Calm   1mph /  1.6km/h 88% 0in /  0.0mm 0 W/m2
02:21 38.5 °F /  3.6 °C 35.2 °F /  1.8 °C 30.8in /  1044.4hPa NE 4mph /  6.4km/h 5mph /  8km/h 88% 0in /  0.0mm 0 W/m2
02:26 38.5 °F /  3.6 °C 35.2 °F /  1.8 °C 30.8in /  1044.4hPa Calm   1mph /  1.6km/h 88% 0in /  0.0mm 0 W/m2
02:31 38.5 °F /  3.6 °C 35.2 °F /  1.8 °C 30.8in /  1044.4hPa Calm   2mph /  3.2km/h 88% 0in /  0.0mm 0 W/m2
02:36 38.7 °F /  3.7 °C 35.4 °F /  1.9 °C 30.8in /  1044.4hPa Calm   1mph /  1.6km/h 88% 0in /  0.0mm 0 W/m2
02:41 38.7 °F /  3.7 °C 35.4 °F /  1.9 °C 30.9in /  1044.7hPa Calm   5mph /  8km/h 88% 0in /  0.0mm 0 W/m2
02:47 38.7 °F /  3.7 °C 35.4 °F /  1.9 °C 30.9in /  1044.7hPa Calm     88% 0in /  0.0mm 0 W/m2
02:52 38.7 °F /  3.7 °C 35.4 °F /  1.9 °C 30.9in /  1044.7hPa NNW 2mph /  3.2km/h 2mph /  3.2km/h 88% 0in /  0.0mm 0 W/m2
02:57 38.7 °F /  3.7 °C 35.4 °F /  1.9 °C 30.9in /  1044.7hPa NNW 0.9mph /  1.4km/h 5mph /  8km/h 88% 0in /  0.0mm 0 W/m2
03:02 38.7 °F /  3.7 °C 35.4 °F /  1.9 °C 30.9in /  1044.7hPa North 2mph /  3.2km/h 3mph /  4.8km/h 88% 0in /  0.0mm 0 W/m2
03:07 38.5 °F /  3.6 °C 35.2 °F /  1.8 °C 30.9in /  1044.7hPa NNE 2mph /  3.2km/h 7mph /  11.3km/h 88% 0in /  0.0mm 0 W/m2
03:12 38.5 °F /  3.6 °C 35.2 °F /  1.8 °C 30.9in /  1044.7hPa Calm   1mph /  1.6km/h 88% 0in /  0.0mm 0 W/m2
03:17 38.5 °F /  3.6 °C 34.9 °F /  1.6 °C 30.9in /  1044.7hPa NE 2mph /  3.2km/h 7mph /  11.3km/h 87% 0in /  0.0mm 0 W/m2
03:22 38.5 °F /  3.6 °C 35.2 °F /  1.8 °C 30.9in /  1044.7hPa NNE 0.9mph /  1.4km/h 2mph /  3.2km/h 88% 0in /  0.0mm 0 W/m2
03:27 38.5 °F /  3.6 °C 34.9 °F /  1.6 °C 30.9in /  1044.7hPa Calm   4mph /  6.4km/h 87% 0in /  0.0mm 0 W/m2
03:32 38.5 °F /  3.6 °C 35.2 °F /  1.8 °C 30.9in /  1044.7hPa NNE 2mph /  3.2km/h 4mph /  6.4km/h 88% 0in /  0.0mm 0 W/m2
03:37 38.5 °F /  3.6 °C 35.2 °F /  1.8 °C 30.9in /  1044.7hPa Calm   2mph /  3.2km/h 88% 0in /  0.0mm 0 W/m2
03:42 38.5 °F /  3.6 °C 35.2 °F /  1.8 °C 30.8in /  1044.4hPa Calm   2mph /  3.2km/h 88% 0in /  0.0mm 0 W/m2
03:47 38.5 °F /  3.6 °C 35.2 °F /  1.8 °C 30.8in /  1044.4hPa Calm   7mph /  11.3km/h 88% 0in /  0.0mm 0 W/m2
03:52 38.5 °F /  3.6 °C 35.2 °F /  1.8 °C 30.8in /  1044.4hPa Calm   5mph /  8km/h 88% 0in /  0.0mm 0 W/m2
03:57 38.5 °F /  3.6 °C 35.2 °F /  1.8 °C 30.8in /  1044.4hPa Calm   5mph /  8km/h 88% 0in /  0.0mm 0 W/m2
04:02 38.5 °F /  3.6 °C 35.2 °F /  1.8 °C 30.8in /  1044.4hPa Calm   4mph /  6.4km/h 88% 0in /  0.0mm 0 W/m2
04:08 38.5 °F /  3.6 °C 35.2 °F /  1.8 °C 30.8in /  1044.4hPa Calm   1mph /  1.6km/h 88% 0in /  0.0mm 0 W/m2
04:13 38.5 °F /  3.6 °C 35.2 °F /  1.8 °C 30.8in /  1044.4hPa Calm   1mph /  1.6km/h 88% 0in /  0.0mm 0 W/m2
04:18 38.5 °F /  3.6 °C 35.2 °F /  1.8 °C 30.8in /  1044.4hPa Calm   1mph /  1.6km/h 88% 0in /  0.0mm 0 W/m2
04:23 38.5 °F /  3.6 °C 34.9 °F /  1.6 °C 30.8in /  1044.4hPa North 0.9mph /  1.4km/h 2mph /  3.2km/h 87% 0in /  0.0mm 0 W/m2
04:28 38.5 °F /  3.6 °C 34.9 °F /  1.6 °C 30.8in /  1044.4hPa North 0.9mph /  1.4km/h 3mph /  4.8km/h 87% 0in /  0.0mm 0 W/m2
04:33 38.5 °F /  3.6 °C 34.9 °F /  1.6 °C 30.8in /  1044.4hPa Calm   5mph /  8km/h 87% 0in /  0.0mm 0 W/m2
04:38 38.5 °F /  3.6 °C 35.2 °F /  1.8 °C 30.8in /  1044.4hPa Calm   4mph /  6.4km/h 88% 0in /  0.0mm 0 W/m2
04:43 38.1 °F /  3.4 °C 34.5 °F /  1.4 °C 30.8in /  1044.4hPa NNE 0.9mph /  1.4km/h 4mph /  6.4km/h 87% 0in /  0.0mm 0 W/m2
04:48 37.9 °F /  3.3 °C 34.7 °F /  1.5 °C 30.8in /  1044.4hPa Calm   8mph /  12.9km/h 88% 0in /  0.0mm 0 W/m2
04:53 37.9 °F /  3.3 °C 34.7 °F /  1.5 °C 30.8in /  1044.4hPa NNE 0.9mph /  1.4km/h 8mph /  12.9km/h 88% 0in /  0.0mm 0 W/m2
04:58 37.8 °F /  3.2 °C 34.5 °F /  1.4 °C 30.8in /  1044.4hPa NNW 2mph /  3.2km/h 3mph /  4.8km/h 88% 0in /  0.0mm 0 W/m2
05:03 37.8 °F /  3.2 °C 34.5 °F /  1.4 °C 30.9in /  1044.7hPa Calm   6mph /  9.7km/h 88% 0in /  0.0mm 0 W/m2
05:08 37.6 °F /  3.1 °C 34.3 °F /  1.3 °C 30.8in /  1044.4hPa Calm   3mph /  4.8km/h 88% 0in /  0.0mm 0 W/m2
05:13 37.4 °F /  3 °C 34.2 °F /  1.2 °C 30.9in /  1044.7hPa Calm     88% 0in /  0.0mm 0 W/m2
05:18 37.2 °F /  2.9 °C 34 °F /  1.1 °C 30.8in /  1044.4hPa NW 0.9mph /  1.4km/h 4mph /  6.4km/h 88% 0in /  0.0mm 0 W/m2
05:23 37 °F /  2.8 °C 33.8 °F /  1 °C 30.8in /  1044.4hPa North 0.9mph /  1.4km/h 6mph /  9.7km/h 88% 0in /  0.0mm 0 W/m2
05:28 36.9 °F /  2.7 °C 33.6 °F /  0.9 °C 30.8in /  1044.4hPa Calm   1mph /  1.6km/h 88% 0.01in /  0.2mm 0 W/m2
05:33 36.9 °F /  2.7 °C 34 °F /  1.1 °C 30.8in /  1044.4hPa Calm   2mph /  3.2km/h 89% 0.01in /  0.2mm 0 W/m2
05:38 36.7 °F /  2.6 °C 33.8 °F /  1 °C 30.8in /  1044.4hPa Calm     89% 0.01in /  0.2mm 0 W/m2
05:43 36.7 °F /  2.6 °C 33.8 °F /  1 °C 30.8in /  1044.4hPa Calm   2mph /  3.2km/h 89% 0.01in /  0.2mm 0 W/m2
05:48 36.5 °F /  2.5 °C 33.6 °F /  0.9 °C 30.8in /  1044.4hPa Calm   1mph /  1.6km/h 89% 0.01in /  0.2mm 0 W/m2
05:53 36.3 °F /  2.4 °C 33.6 °F /  0.9 °C 30.9in /  1044.7hPa Calm     90% 0.01in /  0.2mm 0 W/m2
05:58 36.3 °F /  2.4 °C 33.6 °F /  0.9 °C 30.8in /  1044.4hPa Calm   1mph /  1.6km/h 90% 0.01in /  0.2mm 0 W/m2
06:03 36.1 °F /  2.3 °C 33.4 °F /  0.8 °C 30.8in /  1044.4hPa Calm   1mph /  1.6km/h 90% 0.01in /  0.2mm 0 W/m2
06:08 36.3 °F /  2.4 °C 33.6 °F /  0.9 °C 30.8in /  1044.4hPa Calm   1mph /  1.6km/h 90% 0.01in /  0.2mm 0 W/m2
06:13 36.3 °F /  2.4 °C 34 °F /  1.1 °C 30.8in /  1044.4hPa Calm     91% 0.01in /  0.2mm 0 W/m2
06:18 36.3 °F /  2.4 °C 34 °F /  1.1 °C 30.8in /  1044.4hPa Calm   1mph /  1.6km/h 91% 0.01in /  0.2mm 0 W/m2
06:24 36.1 °F /  2.3 °C 33.8 °F /  1 °C 30.9in /  1044.7hPa Calm   2mph /  3.2km/h 91% 0.01in /  0.2mm 0 W/m2
06:29 36.1 °F /  2.3 °C 33.8 °F /  1 °C 30.9in /  1044.7hPa Calm   4mph /  6.4km/h 91% 0in /  0.0mm 0 W/m2
06:34 36.1 °F /  2.3 °C 33.8 °F /  1 °C 30.9in /  1044.7hPa Calm   1mph /  1.6km/h 91% 0in /  0.0mm 0 W/m2
06:39 36.1 °F /  2.3 °C 33.8 °F /  1 °C 30.9in /  1045.0hPa Calm   3mph /  4.8km/h 91% 0in /  0.0mm 0 W/m2
06:44 36.1 °F /  2.3 °C 33.8 °F /  1 °C 30.9in /  1045.0hPa Calm   2mph /  3.2km/h 91% 0in /  0.0mm 0 W/m2
06:49 36 °F /  2.2 °C 33.6 °F /  0.9 °C 30.9in /  1045.0hPa Calm   4mph /  6.4km/h 91% 0in /  0.0mm 0 W/m2
06:54 36 °F /  2.2 °C 33.6 °F /  0.9 °C 30.9in /  1045.0hPa Calm   1mph /  1.6km/h 91% 0in /  0.0mm 0 W/m2
06:59 36 °F /  2.2 °C 33.6 °F /  0.9 °C 30.9in /  1045.0hPa Calm     91% 0in /  0.0mm 0 W/m2
07:04 36 °F /  2.2 °C 33.6 °F /  0.9 °C 30.9in /  1045.0hPa Calm   2mph /  3.2km/h 91% 0in /  0.0mm 0 W/m2
07:09 36 °F /  2.2 °C 33.6 °F /  0.9 °C 30.9in /  1045.0hPa Calm     91% 0in /  0.0mm 0 W/m2
07:14 36 °F /  2.2 °C 33.6 °F /  0.9 °C 30.9in /  1045.0hPa Calm   2mph /  3.2km/h 91% 0in /  0.0mm 0 W/m2
07:19 35.8 °F /  2.1 °C 33.4 °F /  0.8 °C 30.9in /  1045.4hPa Calm     91% 0in /  0.0mm 0 W/m2
07:24 35.8 °F /  2.1 °C 33.4 °F /  0.8 °C 30.9in /  1045.4hPa Calm     91% 0in /  0.0mm 0 W/m2
07:29 35.4 °F /  1.9 °C 33.1 °F /  0.6 °C 30.9in /  1045.4hPa Calm     91% 0in /  0.0mm 0 W/m2
07:34 35.4 °F /  1.9 °C 33.1 °F /  0.6 °C 30.9in /  1045.0hPa Calm     91% 0in /  0.0mm 0 W/m2
07:39 35.2 °F /  1.8 °C 32.9 °F /  0.5 °C 30.9in /  1045.4hPa Calm   1mph /  1.6km/h 91% 0in /  0.0mm 0 W/m2
07:44 35.2 °F /  1.8 °C 32.9 °F /  0.5 °C 30.9in /  1045.4hPa Calm     91% 0in /  0.0mm 0 W/m2
07:49 35.1 °F /  1.7 °C 32.7 °F /  0.4 °C 30.9in /  1045.4hPa Calm     91% 0in /  0.0mm 0 W/m2
07:54 35.1 °F /  1.7 °C 32.7 °F /  0.4 °C 30.9in /  1045.4hPa Calm     91% 0in /  0.0mm 0 W/m2
07:59 34.9 °F /  1.6 °C 32.7 °F /  0.4 °C 30.9in /  1045.4hPa Calm     92% 0in /  0.0mm 0 W/m2
08:04 35.1 °F /  1.7 °C 32.9 °F /  0.5 °C 30.9in /  1045.4hPa Calm     92% 0in /  0.0mm 0 W/m2
08:09 35.1 °F /  1.7 °C 32.9 °F /  0.5 °C 30.9in /  1045.4hPa Calm   1mph /  1.6km/h 92% 0in /  0.0mm 0 W/m2
08:14 34.9 °F /  1.6 °C 32.7 °F /  0.4 °C 30.9in /  1045.4hPa Calm   1mph /  1.6km/h 92% 0in /  0.0mm 0 W/m2
08:19 34.9 °F /  1.6 °C 32.7 °F /  0.4 °C 30.9in /  1045.7hPa Calm     92% 0in /  0.0mm 0 W/m2
08:24 34.9 °F /  1.6 °C 32.7 °F /  0.4 °C 30.9in /  1045.7hPa Calm   1mph /  1.6km/h 92% 0in /  0.0mm 5 W/m2
08:29 34.7 °F /  1.5 °C 32.5 °F /  0.3 °C 30.9in /  1045.7hPa Calm     92% 0in /  0.0mm 7 W/m2
08:34 34.7 °F /  1.5 °C 32.5 °F /  0.3 °C 30.9in /  1045.7hPa Calm     92% 0in /  0.0mm 9 W/m2
08:39 34.7 °F /  1.5 °C 32.5 °F /  0.3 °C 30.9in /  1045.7hPa Calm   1mph /  1.6km/h 92% 0in /  0.0mm 11 W/m2
08:44 34.7 °F /  1.5 °C 32.5 °F /  0.3 °C 30.9in /  1045.7hPa Calm     92% 0in /  0.0mm 14 W/m2
08:49 34.7 °F /  1.5 °C 32.5 °F /  0.3 °C 30.9in /  1045.7hPa Calm     92% 0in /  0.0mm 16 W/m2
08:54 34.5 °F /  1.4 °C 32.4 °F /  0.2 °C 30.9in /  1045.7hPa Calm     92% 0in /  0.0mm 18 W/m2
08:59 34.7 °F /  1.5 °C 32.5 °F /  0.3 °C 30.9in /  1045.7hPa Calm     92% 0in /  0.0mm 19 W/m2
09:04 34.5 °F /  1.4 °C 32.4 °F /  0.2 °C 30.9in /  1045.7hPa Calm     92% 0in /  0.0mm 19 W/m2
09:09 34.5 °F /  1.4 °C 32.4 °F /  0.2 °C 30.9in /  1045.4hPa Calm     92% 0in /  0.0mm 21 W/m2
09:14 34.5 °F /  1.4 °C 32.4 °F /  0.2 °C 30.9in /  1045.4hPa Calm     92% 0in /  0.0mm 23 W/m2
09:19 34.5 °F /  1.4 °C 32.7 °F /  0.4 °C 30.9in /  1045.4hPa Calm     93% 0in /  0.0mm 23 W/m2
09:24 34.7 °F /  1.5 °C 32.9 °F /  0.5 °C 30.9in /  1045.7hPa Calm     93% 0in /  0.0mm 25 W/m2
09:29 34.7 °F /  1.5 °C 32.9 °F /  0.5 °C 30.9in /  1045.4hPa Calm     93% 0in /  0.0mm 26 W/m2
09:34 34.9 °F /  1.6 °C 33.1 °F /  0.6 °C 30.9in /  1045.4hPa Calm     93% 0in /  0.0mm 26 W/m2
09:39 34.9 °F /  1.6 °C 33.1 °F /  0.6 °C 30.9in /  1045.4hPa Calm     93% 0in /  0.0mm 32 W/m2
09:44 35.1 °F /  1.7 °C 33.3 °F /  0.7 °C 30.9in /  1045.7hPa Calm     93% 0in /  0.0mm 28 W/m2
09:49 35.1 °F /  1.7 °C 32.9 °F /  0.5 °C 30.9in /  1045.7hPa Calm     92% 0in /  0.0mm 35 W/m2
09:54 35.2 °F /  1.8 °C 33.1 °F /  0.6 °C 30.9in /  1045.7hPa Calm   1mph /  1.6km/h 92% 0in /  0.0mm 30 W/m2
09:59 35.2 °F /  1.8 °C 33.1 °F /  0.6 °C 30.9in /  1045.7hPa Calm   1mph /  1.6km/h 92% 0in /  0.0mm 32 W/m2
10:04 35.6 °F /  2 °C 33.4 °F /  0.8 °C 30.9in /  1045.7hPa Calm   2mph /  3.2km/h 92% 0in /  0.0mm 33 W/m2
10:09 35.8 °F /  2.1 °C 33.4 °F /  0.8 °C 30.9in /  1045.7hPa Calm     91% 0in /  0.0mm 42 W/m2
10:14 36 °F /  2.2 °C 33.6 °F /  0.9 °C 30.9in /  1046.1hPa Calm     91% 0in /  0.0mm 33 W/m2
10:19 36.1 °F /  2.3 °C 33.4 °F /  0.8 °C 30.9in /  1046.1hPa Calm     90% 0in /  0.0mm 39 W/m2
10:24 36.3 °F /  2.4 °C 33.6 °F /  0.9 °C 30.9in /  1046.1hPa Calm   1mph /  1.6km/h 90% 0in /  0.0mm 35 W/m2
10:29 36.7 °F /  2.6 °C 33.8 °F /  1 °C 30.9in /  1046.1hPa Calm     89% 0in /  0.0mm 39 W/m2
10:34 36.9 °F /  2.7 °C 34 °F /  1.1 °C 30.9in /  1046.1hPa Calm   1mph /  1.6km/h 89% 0in /  0.0mm 40 W/m2
10:39 37 °F /  2.8 °C 33.8 °F /  1 °C 30.9in /  1046.1hPa Calm   1mph /  1.6km/h 88% 0in /  0.0mm 39 W/m2
10:44 37.2 °F /  2.9 °C 33.8 °F /  1 °C 30.9in /  1046.4hPa Calm     87% 0in /  0.0mm 40 W/m2
10:49 37.6 °F /  3.1 °C 34 °F /  1.1 °C 30.9in /  1046.4hPa Calm     87% 0in /  0.0mm 46 W/m2
10:54 38.1 °F /  3.4 °C 34 °F /  1.1 °C 30.9in /  1046.4hPa Calm   8mph /  12.9km/h 85% 0in /  0.0mm 42 W/m2
10:59 38.7 °F /  3.7 °C 34 °F /  1.1 °C 30.9in /  1046.1hPa Calm   9mph /  14.5km/h 83% 0in /  0.0mm 39 W/m2
11:04 39.2 °F /  4 °C 33.6 °F /  0.9 °C 30.9in /  1046.1hPa NE 6.9mph /  11.1km/h 11mph /  17.7km/h 80% 0in /  0.0mm 37 W/m2
11:09 39.6 °F /  4.2 °C 32.9 °F /  0.5 °C 30.9in /  1046.1hPa NNE 4.9mph /  7.9km/h 12mph /  19.3km/h 77% 0in /  0.0mm 37 W/m2
11:14 39.7 °F /  4.3 °C 33.1 °F /  0.6 °C 30.9in /  1046.1hPa North 2mph /  3.2km/h 4mph /  6.4km/h 77% 0in /  0.0mm 44 W/m2
11:19 39.9 °F /  4.4 °C 32.9 °F /  0.5 °C 30.9in /  1046.1hPa ENE 14mph /  22.5km/h 14mph /  22.5km/h 76% 0in /  0.0mm 46 W/m2
11:24 39.9 °F /  4.4 °C 32.9 °F /  0.5 °C 30.9in /  1046.1hPa ENE 8.9mph /  14.3km/h 9mph /  14.5km/h 76% 0in /  0.0mm 42 W/m2
11:29 39.9 °F /  4.4 °C 33.3 °F /  0.7 °C 30.9in /  1046.1hPa NNE 4.9mph /  7.9km/h 6mph /  9.7km/h 77% 0in /  0.0mm 39 W/m2
11:34 39.9 °F /  4.4 °C 33.3 °F /  0.7 °C 30.9in /  1046.1hPa ENE 4mph /  6.4km/h 5mph /  8km/h 77% 0in /  0.0mm 42 W/m2
11:39 39.9 °F /  4.4 °C 33.3 °F /  0.7 °C 30.9in /  1046.1hPa ENE 2.9mph /  4.7km/h 6mph /  9.7km/h 77% 0in /  0.0mm 47 W/m2
11:44 40.1 °F /  4.5 °C 33.4 °F /  0.8 °C 30.9in /  1046.1hPa NNE 8.1mph /  13km/h 12mph /  19.3km/h 77% 0in /  0.0mm 56 W/m2
11:49 40.1 °F /  4.5 °C 33.4 °F /  0.8 °C 30.9in /  1046.1hPa ENE 8.1mph /  13km/h 11mph /  17.7km/h 77% 0in /  0.0mm 39 W/m2
11:54 40.1 °F /  4.5 °C 33.4 °F /  0.8 °C 30.9in /  1046.1hPa ESE 4mph /  6.4km/h 9mph /  14.5km/h 77% 0in /  0.0mm 49 W/m2
11:59 40.1 °F /  4.5 °C 33.4 °F /  0.8 °C 30.9in /  1046.1hPa NE 10.1mph /  16.3km/h 13mph /  20.9km/h 77% 0in /  0.0mm 46 W/m2
12:04 40.3 °F /  4.6 °C 33.6 °F /  0.9 °C 30.9in /  1045.7hPa East 0.9mph /  1.4km/h 9mph /  14.5km/h 77% 0in /  0.0mm 42 W/m2
12:09 40.3 °F /  4.6 °C 33.6 °F /  0.9 °C 30.9in /  1045.7hPa NE 0.9mph /  1.4km/h 7mph /  11.3km/h 77% 0in /  0.0mm 40 W/m2
12:14 40.3 °F /  4.6 °C 33.6 °F /  0.9 °C 30.9in /  1045.7hPa ENE 4.9mph /  7.9km/h 6mph /  9.7km/h 77% 0in /  0.0mm 40 W/m2
12:19 40.5 °F /  4.7 °C 33.8 °F /  1 °C 30.9in /  1045.7hPa North 4mph /  6.4km/h 10mph /  16.1km/h 77% 0in /  0.0mm 60 W/m2
12:24 40.5 °F /  4.7 °C 33.8 °F /  1 °C 30.9in /  1045.7hPa Calm   5mph /  8km/h 77% 0in /  0.0mm 54 W/m2
12:29 40.6 °F /  4.8 °C 34 °F /  1.1 °C 30.9in /  1045.4hPa Calm   8mph /  12.9km/h 77% 0in /  0.0mm 53 W/m2
12:35 40.6 °F /  4.8 °C 34 °F /  1.1 °C 30.9in /  1045.4hPa NNE 6mph /  9.7km/h 8mph /  12.9km/h 77% 0in /  0.0mm 40 W/m2
12:40 40.6 °F /  4.8 °C 34 °F /  1.1 °C 30.9in /  1045.4hPa NNE 4.9mph /  7.9km/h 5mph /  8km/h 77% 0in /  0.0mm 42 W/m2
12:45 40.6 °F /  4.8 °C 33.6 °F /  0.9 °C 30.9in /  1045.4hPa NNE 2.9mph /  4.7km/h 8mph /  12.9km/h 76% 0in /  0.0mm 47 W/m2
12:50 40.8 °F /  4.9 °C 33.8 °F /  1 °C 30.9in /  1045.4hPa Calm   8mph /  12.9km/h 76% 0in /  0.0mm 42 W/m2
12:55 40.8 °F /  4.9 °C 33.8 °F /  1 °C 30.9in /  1045.0hPa NNE 4mph /  6.4km/h 7mph /  11.3km/h 76% 0in /  0.0mm 51 W/m2
13:00 40.8 °F /  4.9 °C 33.8 °F /  1 °C 30.9in /  1045.0hPa NNE 6mph /  9.7km/h 10mph /  16.1km/h 76% 0in /  0.0mm 39 W/m2
13:05 40.8 °F /  4.9 °C 33.4 °F /  0.8 °C 30.9in /  1045.0hPa NE 4.9mph /  7.9km/h 6mph /  9.7km/h 75% 0in /  0.0mm 47 W/m2
13:10 40.8 °F /  4.9 °C 33.4 °F /  0.8 °C 30.9in /  1045.0hPa Calm   10mph /  16.1km/h 75% 0in /  0.0mm 39 W/m2
13:15 41 °F /  5 °C 34 °F /  1.1 °C 30.9in /  1045.0hPa North 2.9mph /  4.7km/h 8mph /  12.9km/h 76% 0in /  0.0mm 39 W/m2
13:20 41.2 °F /  5.1 °C 33.8 °F /  1 °C 30.9in /  1045.0hPa East 0.9mph /  1.4km/h 11mph /  17.7km/h 75% 0in /  0.0mm 42 W/m2
13:25 41.4 °F /  5.2 °C 34 °F /  1.1 °C 30.9in /  1045.0hPa ENE 4.9mph /  7.9km/h 6mph /  9.7km/h 75% 0in /  0.0mm 42 W/m2
13:30 41.5 °F /  5.3 °C 34.2 °F /  1.2 °C 30.9in /  1044.7hPa Calm   3mph /  4.8km/h 75% 0in /  0.0mm 39 W/m2
13:35 41.5 °F /  5.3 °C 34.2 °F /  1.2 °C 30.9in /  1044.7hPa North 2.9mph /  4.7km/h 8mph /  12.9km/h 75% 0in /  0.0mm 33 W/m2
13:40 41.5 °F /  5.3 °C 34.2 °F /  1.2 °C 30.9in /  1044.7hPa ENE 6mph /  9.7km/h 7mph /  11.3km/h 75% 0in /  0.0mm 37 W/m2
13:45 41.5 °F /  5.3 °C 34.2 °F /  1.2 °C 30.9in /  1044.7hPa NNE 2mph /  3.2km/h 5mph /  8km/h 75% 0in /  0.0mm 44 W/m2
13:50 41.5 °F /  5.3 °C 33.8 °F /  1 °C 30.9in /  1044.7hPa NNE 2.9mph /  4.7km/h 6mph /  9.7km/h 74% 0in /  0.0mm 39 W/m2
13:55 41.7 °F /  5.4 °C 34 °F /  1.1 °C 30.9in /  1044.7hPa ENE 2mph /  3.2km/h 7mph /  11.3km/h 74% 0in /  0.0mm 53 W/m2
14:00 41.7 °F /  5.4 °C 34 °F /  1.1 °C 30.9in /  1044.7hPa NE 0.9mph /  1.4km/h 5mph /  8km/h 74% 0in /  0.0mm 39 W/m2
14:05 41.9 °F /  5.5 °C 34.2 °F /  1.2 °C 30.9in /  1044.7hPa ENE 2.9mph /  4.7km/h 5mph /  8km/h 74% 0in /  0.0mm 40 W/m2
14:10 41.7 °F /  5.4 °C 34 °F /  1.1 °C 30.8in /  1044.4hPa NE 4mph /  6.4km/h 5mph /  8km/h 74% 0in /  0.0mm 37 W/m2
14:15 41.9 °F /  5.5 °C 33.8 °F /  1 °C 30.8in /  1044.4hPa NE 4.9mph /  7.9km/h 9mph /  14.5km/h 73% 0in /  0.0mm 47 W/m2
14:20 41.9 °F /  5.5 °C 33.8 °F /  1 °C 30.8in /  1044.4hPa NNE 4.9mph /  7.9km/h 6mph /  9.7km/h 73% 0in /  0.0mm 46 W/m2
14:25 42.1 °F /  5.6 °C 34.3 °F /  1.3 °C 30.8in /  1044.4hPa NNE 2.9mph /  4.7km/h 5mph /  8km/h 74% 0in /  0.0mm 42 W/m2
14:30 42.1 °F /  5.6 °C 34.7 °F /  1.5 °C 30.8in /  1044.4hPa North 0.9mph /  1.4km/h 4mph /  6.4km/h 75% 0in /  0.0mm 54 W/m2
14:35 42.1 °F /  5.6 °C 34.7 °F /  1.5 °C 30.8in /  1044.4hPa ESE 0.9mph /  1.4km/h 5mph /  8km/h 75% 0in /  0.0mm 44 W/m2
14:41 42.1 °F /  5.6 °C 34.3 °F /  1.3 °C 30.8in /  1044.4hPa Calm   5mph /  8km/h 74% 0in /  0.0mm 39 W/m2
14:46 42.1 °F /  5.6 °C 34.3 °F /  1.3 °C 30.8in /  1044.4hPa NE 6mph /  9.7km/h 8mph /  12.9km/h 74% 0in /  0.0mm 35 W/m2
14:51 42.1 °F /  5.6 °C 34.3 °F /  1.3 °C 30.8in /  1044.0hPa Calm   10mph /  16.1km/h 74% 0in /  0.0mm 37 W/m2
14:56 42.1 °F /  5.6 °C 34.3 °F /  1.3 °C 30.8in /  1044.0hPa NE 0.9mph /  1.4km/h 3mph /  4.8km/h 74% 0in /  0.0mm 40 W/m2
15:01 42.1 °F /  5.6 °C 34.3 °F /  1.3 °C 30.8in /  1044.0hPa NE 6.9mph /  11.1km/h 9mph /  14.5km/h 74% 0in /  0.0mm 53 W/m2
15:06 42.3 °F /  5.7 °C 34.5 °F /  1.4 °C 30.8in /  1044.0hPa NNW 6mph /  9.7km/h 9mph /  14.5km/h 74% 0in /  0.0mm 49 W/m2
15:11 42.3 °F /  5.7 °C 34.9 °F /  1.6 °C 30.8in /  1044.0hPa North 2.9mph /  4.7km/h 8mph /  12.9km/h 75% 0in /  0.0mm 33 W/m2
15:16 42.1 °F /  5.6 °C 34.3 °F /  1.3 °C 30.8in /  1044.0hPa NNE 6mph /  9.7km/h 7mph /  11.3km/h 74% 0in /  0.0mm 32 W/m2
15:21 41.7 °F /  5.4 °C 34 °F /  1.1 °C 30.8in /  1044.0hPa North 10.1mph /  16.3km/h 10mph /  16.1km/h 74% 0in /  0.0mm 30 W/m2
15:26 41.7 °F /  5.4 °C 34 °F /  1.1 °C 30.8in /  1044.0hPa North 6mph /  9.7km/h 10mph /  16.1km/h 74% 0in /  0.0mm 30 W/m2
15:31 41.7 °F /  5.4 °C 34.3 °F /  1.3 °C 30.8in /  1044.0hPa Calm   1mph /  1.6km/h 75% 0in /  0.0mm 30 W/m2
15:36 41.5 °F /  5.3 °C 34.2 °F /  1.2 °C 30.8in /  1044.0hPa NNW 4.9mph /  7.9km/h 9mph /  14.5km/h 75% 0in /  0.0mm 30 W/m2
15:41 41.5 °F /  5.3 °C 34.2 °F /  1.2 °C 30.8in /  1044.0hPa North 6.9mph /  11.1km/h 9mph /  14.5km/h 75% 0in /  0.0mm 28 W/m2
15:46 41.5 °F /  5.3 °C 34.2 °F /  1.2 °C 30.8in /  1044.0hPa NW 4mph /  6.4km/h 8mph /  12.9km/h 75% 0in /  0.0mm 28 W/m2
15:51 41.5 °F /  5.3 °C 34.2 °F /  1.2 °C 30.8in /  1044.0hPa NNE 2.9mph /  4.7km/h 6mph /  9.7km/h 75% 0in /  0.0mm 26 W/m2
15:56 41.5 °F /  5.3 °C 34.2 °F /  1.2 °C 30.8in /  1044.0hPa North 8.1mph /  13km/h 9mph /  14.5km/h 75% 0in /  0.0mm 26 W/m2
16:01 41.5 °F /  5.3 °C 34.2 °F /  1.2 °C 30.8in /  1044.0hPa Calm   2mph /  3.2km/h 75% 0in /  0.0mm 26 W/m2
16:06 41.4 °F /  5.2 °C 34 °F /  1.1 °C 30.8in /  1044.0hPa NNE 4.9mph /  7.9km/h 7mph /  11.3km/h 75% 0in /  0.0mm 25 W/m2
16:11 41.4 °F /  5.2 °C 34 °F /  1.1 °C 30.8in /  1044.0hPa NNE 2.9mph /  4.7km/h 6mph /  9.7km/h 75% 0in /  0.0mm 23 W/m2
16:16 41.2 °F /  5.1 °C 33.8 °F /  1 °C 30.8in /  1044.0hPa NE 6mph /  9.7km/h 8mph /  12.9km/h 75% 0in /  0.0mm 21 W/m2
16:21 41.2 °F /  5.1 °C 33.8 °F /  1 °C 30.8in /  1044.0hPa NE 2.9mph /  4.7km/h 8mph /  12.9km/h 75% 0in /  0.0mm 21 W/m2
16:26 41 °F /  5 °C 33.6 °F /  0.9 °C 30.8in /  1043.7hPa North 10.1mph /  16.3km/h 11mph /  17.7km/h 75% 0in /  0.0mm 19 W/m2
16:31 40.8 °F /  4.9 °C 33.4 °F /  0.8 °C 30.8in /  1043.7hPa Calm   4mph /  6.4km/h 75% 0in /  0.0mm 18 W/m2
16:36 40.8 °F /  4.9 °C 33.4 °F /  0.8 °C 30.8in /  1043.7hPa Calm   5mph /  8km/h 75% 0in /  0.0mm 16 W/m2
16:41 40.6 °F /  4.8 °C 33.3 °F /  0.7 °C 30.8in /  1043.7hPa NNE 0.9mph /  1.4km/h 4mph /  6.4km/h 75% 0in /  0.0mm 16 W/m2
16:46 40.6 °F /  4.8 °C 33.3 °F /  0.7 °C 30.8in /  1043.7hPa Calm   3mph /  4.8km/h 75% 0in /  0.0mm 14 W/m2
16:51 40.3 °F /  4.6 °C 33.3 °F /  0.7 °C 30.8in /  1043.7hPa Calm   5mph /  8km/h 76% 0in /  0.0mm 12 W/m2
16:56 40.3 °F /  4.6 °C 33.3 °F /  0.7 °C 30.8in /  1043.7hPa NNE 8.9mph /  14.3km/h 9mph /  14.5km/h 76% 0in /  0.0mm 11 W/m2
17:01 39.9 °F /  4.4 °C 32.9 °F /  0.5 °C 30.8in /  1043.7hPa NE 0.9mph /  1.4km/h 5mph /  8km/h 76% 0in /  0.0mm 9 W/m2
17:06 39.7 °F /  4.3 °C 32.7 °F /  0.4 °C 30.8in /  1043.7hPa NNW 4mph /  6.4km/h 9mph /  14.5km/h 76% 0in /  0.0mm 5 W/m2
17:11 39.7 °F /  4.3 °C 32.7 °F /  0.4 °C 30.8in /  1043.3hPa Calm   1mph /  1.6km/h 76% 0in /  0.0mm 5 W/m2
17:16 39.6 °F /  4.2 °C 32.9 °F /  0.5 °C 30.8in /  1043.7hPa Calm   6mph /  9.7km/h 77% 0in /  0.0mm 0 W/m2
17:21 39.4 °F /  4.1 °C 32.7 °F /  0.4 °C 30.8in /  1043.7hPa Calm   5mph /  8km/h 77% 0in /  0.0mm 0 W/m2
17:26 39 °F /  3.9 °C 32.4 °F /  0.2 °C 30.8in /  1043.7hPa Calm   1mph /  1.6km/h 77% 0in /  0.0mm 0 W/m2
17:31 39 °F /  3.9 °C 32.7 °F /  0.4 °C 30.8in /  1043.7hPa Calm   2mph /  3.2km/h 78% 0in /  0.0mm 0 W/m2
17:36 38.8 °F /  3.8 °C 32.9 °F /  0.5 °C 30.8in /  1043.7hPa Calm   7mph /  11.3km/h 79% 0in /  0.0mm 0 W/m2
17:41 38.7 °F /  3.7 °C 32.7 °F /  0.4 °C 30.8in /  1043.7hPa North 6.9mph /  11.1km/h 9mph /  14.5km/h 79% 0in /  0.0mm 0 W/m2
17:46 38.5 °F /  3.6 °C 32.9 °F /  0.5 °C 30.8in /  1043.7hPa Calm   6mph /  9.7km/h 80% 0in /  0.0mm 0 W/m2
17:51 38.3 °F /  3.5 °C 32.7 °F /  0.4 °C 30.8in /  1043.7hPa NNE 0.9mph /  1.4km/h 8mph /  12.9km/h 80% 0in /  0.0mm 0 W/m2
17:56 37.9 °F /  3.3 °C 32.4 °F /  0.2 °C 30.8in /  1043.7hPa NNE 2mph /  3.2km/h 7mph /  11.3km/h 80% 0in /  0.0mm 0 W/m2
18:01 37.8 °F /  3.2 °C 32.5 °F /  0.3 °C 30.8in /  1043.7hPa Calm   5mph /  8km/h 81% 0in /  0.0mm 0 W/m2
18:06 37.6 °F /  3.1 °C 32.4 °F /  0.2 °C 30.8in /  1044.0hPa NE 2mph /  3.2km/h 7mph /  11.3km/h 81% 0in /  0.0mm 0 W/m2
18:11 37.4 °F /  3 °C 32.2 °F /  0.1 °C 30.8in /  1044.0hPa Calm   2mph /  3.2km/h 81% 0in /  0.0mm 0 W/m2
18:16 37.2 °F /  2.9 °C 32 °F /  0 °C 30.8in /  1044.0hPa Calm   8mph /  12.9km/h 81% 0in /  0.0mm 0 W/m2
18:21 37 °F /  2.8 °C 32 °F /  0 °C 30.8in /  1044.0hPa Calm   1mph /  1.6km/h 82% 0in /  0.0mm 0 W/m2
18:26 36.9 °F /  2.7 °C 31.8 °F /  -0.1 °C 30.8in /  1044.0hPa Calm   5mph /  8km/h 82% 0in /  0.0mm 0 W/m2
18:31 36.9 °F /  2.7 °C 31.8 °F /  -0.1 °C 30.8in /  1044.0hPa Calm   1mph /  1.6km/h 82% 0in /  0.0mm 0 W/m2
18:36 36.7 °F /  2.6 °C 31.6 °F /  -0.2 °C 30.8in /  1044.0hPa Calm   5mph /  8km/h 82% 0in /  0.0mm 0 W/m2
18:41 36.3 °F /  2.4 °C 31.6 °F /  -0.2 °C 30.8in /  1044.0hPa NNW 2mph /  3.2km/h 2mph /  3.2km/h 83% 0in /  0.0mm 0 W/m2
18:46 36.3 °F /  2.4 °C 31.6 °F /  -0.2 °C 30.8in /  1044.0hPa Calm   4mph /  6.4km/h 83% 0in /  0.0mm 0 W/m2
18:51 36.1 °F /  2.3 °C 31.5 °F /  -0.3 °C 30.8in /  1044.0hPa Calm     83% 0in /  0.0mm 0 W/m2
18:56 36.1 °F /  2.3 °C 31.5 °F /  -0.3 °C 30.8in /  1044.0hPa NNE 2mph /  3.2km/h 2mph /  3.2km/h 83% 0in /  0.0mm 0 W/m2
19:01 36 °F /  2.2 °C 31.3 °F /  -0.4 °C 30.8in /  1044.4hPa NNE 0.9mph /  1.4km/h 1mph /  1.6km/h 83% 0in /  0.0mm 0 W/m2
19:06 36 °F /  2.2 °C 31.6 °F /  -0.2 °C 30.8in /  1044.4hPa Calm     84% 0in /  0.0mm 0 W/m2
19:11 35.8 °F /  2.1 °C 31.5 °F /  -0.3 °C 30.8in /  1044.4hPa Calm   2mph /  3.2km/h 84% 0in /  0.0mm 0 W/m2
19:16 35.8 °F /  2.1 °C 31.5 °F /  -0.3 °C 30.8in /  1044.4hPa Calm   1mph /  1.6km/h 84% 0in /  0.0mm 0 W/m2
19:21 35.8 °F /  2.1 °C 31.5 °F /  -0.3 °C 30.8in /  1044.0hPa Calm   3mph /  4.8km/h 84% 0in /  0.0mm 0 W/m2
19:26 35.6 °F /  2 °C 31.3 °F /  -0.4 °C 30.8in /  1044.0hPa Calm   1mph /  1.6km/h 84% 0in /  0.0mm 0 W/m2
19:31 35.4 °F /  1.9 °C 31.1 °F /  -0.5 °C 30.8in /  1044.0hPa Calm   3mph /  4.8km/h 84% 0in /  0.0mm 0 W/m2
19:36 35.4 °F /  1.9 °C 31.1 °F /  -0.5 °C 30.8in /  1044.0hPa North 0.9mph /  1.4km/h 3mph /  4.8km/h 84% 0in /  0.0mm 0 W/m2
19:41 35.4 °F /  1.9 °C 31.1 °F /  -0.5 °C 30.8in /  1044.0hPa Calm   2mph /  3.2km/h 84% 0in /  0.0mm 0 W/m2
19:47 35.2 °F /  1.8 °C 30.9 °F /  -0.6 °C 30.8in /  1044.0hPa Calm   1mph /  1.6km/h 84% 0in /  0.0mm 0 W/m2
19:52 35.2 °F /  1.8 °C 30.9 °F /  -0.6 °C 30.8in /  1044.0hPa Calm   1mph /  1.6km/h 84% 0in /  0.0mm 0 W/m2
19:57 35.2 °F /  1.8 °C 30.9 °F /  -0.6 °C 30.8in /  1044.0hPa Calm   2mph /  3.2km/h 84% 0in /  0.0mm 0 W/m2
20:02 35.1 °F /  1.7 °C 30.9 °F /  -0.6 °C 30.8in /  1043.7hPa Calm   3mph /  4.8km/h 85% 0in /  0.0mm 0 W/m2
20:07 35.1 °F /  1.7 °C 30.9 °F /  -0.6 °C 30.8in /  1044.0hPa Calm     85% 0in /  0.0mm 0 W/m2
20:12 35.1 °F /  1.7 °C 30.9 °F /  -0.6 °C 30.8in /  1044.0hPa Calm     85% 0in /  0.0mm 0 W/m2
20:17 35.1 °F /  1.7 °C 30.9 °F /  -0.6 °C 30.8in /  1043.7hPa Calm     85% 0in /  0.0mm 0 W/m2
20:22 34.9 °F /  1.6 °C 30.6 °F /  -0.8 °C 30.8in /  1043.7hPa Calm   2mph /  3.2km/h 84% 0in /  0.0mm 0 W/m2
20:27 34.9 °F /  1.6 °C 30.9 °F /  -0.6 °C 30.8in /  1044.0hPa Calm     85% 0in /  0.0mm 0 W/m2
20:32 34.5 °F /  1.4 °C 30.6 °F /  -0.8 °C 30.8in /  1043.7hPa Calm     85% 0in /  0.0mm 0 W/m2
20:37 34.5 °F /  1.4 °C 30.6 °F /  -0.8 °C 30.8in /  1044.0hPa North 2mph /  3.2km/h 2mph /  3.2km/h 85% 0in /  0.0mm 0 W/m2
20:42 34.5 °F /  1.4 °C 30.6 °F /  -0.8 °C 30.8in /  1044.0hPa Calm     85% 0in /  0.0mm 0 W/m2
20:47 34.5 °F /  1.4 °C 30.6 °F /  -0.8 °C 30.8in /  1044.0hPa Calm     85% 0in /  0.0mm 0 W/m2
20:52 34.5 °F /  1.4 °C 30.6 °F /  -0.8 °C 30.8in /  1044.0hPa Calm   4mph /  6.4km/h 85% 0in /  0.0mm 0 W/m2
20:57 34.5 °F /  1.4 °C 30.6 °F /  -0.8 °C 30.8in /  1044.0hPa Calm   3mph /  4.8km/h 85% 0in /  0.0mm 0 W/m2
21:02 34.3 °F /  1.3 °C 30.4 °F /  -0.9 °C 30.8in /  1044.0hPa Calm     85% 0in /  0.0mm 0 W/m2
21:07 34.3 °F /  1.3 °C 30.6 °F /  -0.8 °C 30.8in /  1043.7hPa Calm   3mph /  4.8km/h 86% 0in /  0.0mm 0 W/m2
21:12 34.2 °F /  1.2 °C 30.4 °F /  -0.9 °C 30.8in /  1043.7hPa Calm   2mph /  3.2km/h 86% 0in /  0.0mm 0 W/m2
21:17 34.2 °F /  1.2 °C 30.4 °F /  -0.9 °C 30.8in /  1043.7hPa Calm     86% 0in /  0.0mm 0 W/m2
21:22 34 °F /  1.1 °C 30.2 °F /  -1 °C 30.8in /  1043.7hPa Calm     86% 0in /  0.0mm 0 W/m2
21:27 34 °F /  1.1 °C 30.6 °F /  -0.8 °C 30.8in /  1043.7hPa Calm   1mph /  1.6km/h 87% 0in /  0.0mm 0 W/m2
21:32 34 °F /  1.1 °C 30.6 °F /  -0.8 °C 30.8in /  1043.7hPa Calm     87% 0in /  0.0mm 0 W/m2
21:37 33.8 °F /  1 °C 30 °F /  -1.1 °C 30.8in /  1043.7hPa Calm     86% 0in /  0.0mm 0 W/m2
21:42 33.6 °F /  0.9 °C 29.8 °F /  -1.2 °C 30.8in /  1043.7hPa Calm     86% 0in /  0.0mm 0 W/m2
21:47 33.4 °F /  0.8 °C 30 °F /  -1.1 °C 30.8in /  1043.7hPa Calm     87% 0in /  0.0mm 0 W/m2
21:52 33.3 °F /  0.7 °C 29.8 °F /  -1.2 °C 30.8in /  1043.7hPa Calm     87% 0in /  0.0mm 0 W/m2
21:57 33.1 °F /  0.6 °C 29.7 °F /  -1.3 °C 30.8in /  1043.3hPa Calm     87% 0in /  0.0mm 0 W/m2
22:02 33.3 °F /  0.7 °C 30 °F /  -1.1 °C 30.8in /  1043.3hPa Calm   1mph /  1.6km/h 88% 0in /  0.0mm 0 W/m2
22:07 33.4 °F /  0.8 °C 30.2 °F /  -1 °C 30.8in /  1043.3hPa Calm     88% 0in /  0.0mm 0 W/m2
22:12 33.4 °F /  0.8 °C 30.2 °F /  -1 °C 30.8in /  1043.3hPa Calm     88% 0in /  0.0mm 0 W/m2
22:17 33.6 °F /  0.9 °C 30.4 °F /  -0.9 °C 30.8in /  1043.3hPa Calm     88% 0in /  0.0mm 0 W/m2
22:23 33.6 °F /  0.9 °C 30.4 °F /  -0.9 °C 30.8in /  1043.3hPa Calm     88% 0in /  0.0mm 0 W/m2
22:28 33.6 °F /  0.9 °C 30.4 °F /  -0.9 °C 30.8in /  1043.3hPa Calm     88% 0in /  0.0mm 0 W/m2
22:33 33.6 °F /  0.9 °C 30.2 °F /  -1 °C 30.8in /  1043.3hPa Calm     87% 0in /  0.0mm 0 W/m2
22:38 33.4 °F /  0.8 °C 30 °F /  -1.1 °C 30.8in /  1043.3hPa Calm     87% 0in /  0.0mm 0 W/m2
22:43 33.3 °F /  0.7 °C 30 °F /  -1.1 °C 30.8in /  1043.3hPa Calm     88% 0in /  0.0mm 0 W/m2
22:48 33.4 °F /  0.8 °C 30.2 °F /  -1 °C 30.8in /  1043.3hPa Calm     88% 0in /  0.0mm 0 W/m2
22:53 33.4 °F /  0.8 °C 30.2 °F /  -1 °C 30.8in /  1043.3hPa Calm   2mph /  3.2km/h 88% 0in /  0.0mm 0 W/m2
22:58 33.4 °F /  0.8 °C 30.2 °F /  -1 °C 30.8in /  1043.3hPa Calm     88% 0in /  0.0mm 0 W/m2
23:03 33.4 °F /  0.8 °C 30 °F /  -1.1 °C 30.8in /  1043.3hPa Calm   1mph /  1.6km/h 87% 0in /  0.0mm 0 W/m2
23:08 33.4 °F /  0.8 °C 30.2 °F /  -1 °C 30.8in /  1043.3hPa Calm     88% 0in /  0.0mm 0 W/m2
23:13 33.4 °F /  0.8 °C 30.2 °F /  -1 °C 30.8in /  1043.3hPa Calm   1mph /  1.6km/h 88% 0in /  0.0mm 0 W/m2
23:18 33.4 °F /  0.8 °C 30.2 °F /  -1 °C 30.8in /  1043.3hPa Calm     88% 0in /  0.0mm 0 W/m2
23:23 33.6 °F /  0.9 °C 30.4 °F /  -0.9 °C 30.8in /  1043.3hPa Calm   1mph /  1.6km/h 88% 0in /  0.0mm 0 W/m2
23:28 33.6 °F /  0.9 °C 30.2 °F /  -1 °C 30.8in /  1043.3hPa Calm     87% 0in /  0.0mm 0 W/m2
23:33 33.6 °F /  0.9 °C 30.2 °F /  -1 °C 30.8in /  1043.3hPa Calm   4mph /  6.4km/h 87% 0in /  0.0mm 0 W/m2
23:38 33.8 °F /  1 °C 30.4 °F /  -0.9 °C 30.8in /  1043.3hPa Calm     87% 0in /  0.0mm 0 W/m2
23:43 34 °F /  1.1 °C 30.6 °F /  -0.8 °C 30.8in /  1043.3hPa Calm   4mph /  6.4km/h 87% 0in /  0.0mm 0 W/m2
23:48 34 °F /  1.1 °C 30.6 °F /  -0.8 °C 30.8in /  1043.3hPa Calm     87% 0in /  0.0mm 0 W/m2
23:53 33.4 °F /  0.8 °C 30 °F /  -1.1 °C 30.8in /  1043.3hPa Calm   3mph /  4.8km/h 87% 0in /  0.0mm 0 W/m2
23:58 33.4 °F /  0.8 °C 30 °F /  -1.1 °C 30.8in /  1043.3hPa Calm     87% 0in /  0.0mm 0 W/m2
Juneau County Weather
Compliments of Weather Underground - 4 mb